createdAt,value
2023-02-04T00:00:38.961Z,6.16
2023-02-04T00:03:08.976Z,6.82
2023-02-04T00:05:37.146Z,6.69
2023-02-04T00:08:05.851Z,6.28
2023-02-04T00:10:34.476Z,5.99
2023-02-04T00:13:02.952Z,5.61
2023-02-04T00:15:31.882Z,5.63
2023-02-04T00:18:00.167Z,6.08
2023-02-04T00:20:30.372Z,5.53
2023-02-04T00:22:59.090Z,6.00
2023-02-04T00:25:27.424Z,5.99
2023-02-04T00:27:55.708Z,5.75
2023-02-04T00:30:23.879Z,5.22
2023-02-04T00:32:54.763Z,5.32
2023-02-04T00:35:22.996Z,5.25
2023-02-04T00:37:52.916Z,5.07
2023-02-04T00:40:21.445Z,5.47
2023-02-04T00:42:49.692Z,5.71
2023-02-04T00:45:18.639Z,5.32
2023-02-04T00:47:47.082Z,5.55
2023-02-04T00:50:15.219Z,5.17
2023-02-04T00:52:44.965Z,4.97
2023-02-04T00:55:17.094Z,5.12
2023-02-04T00:57:47.211Z,4.99
2023-02-04T01:00:17.264Z,5.15
2023-02-04T01:02:45.647Z,5.27
2023-02-04T01:05:14.822Z,5.42
2023-02-04T01:07:43.357Z,5.09
2023-02-04T01:10:12.562Z,4.48
2023-02-04T01:12:42.720Z,4.47
2023-02-04T01:15:11.863Z,-145.60
2023-02-04T01:17:41.754Z,-145.60
2023-02-04T01:20:11.689Z,-145.60
2023-02-04T01:22:40.180Z,-145.60
2023-02-04T01:25:09.392Z,-145.60
2023-02-04T01:27:45.856Z,-145.60
2023-02-04T01:30:16.729Z,-145.60
2023-02-04T01:32:45.157Z,-145.60
2023-02-04T01:35:13.594Z,-145.60
2023-02-04T01:37:41.811Z,-145.60
2023-02-04T01:40:11.485Z,-145.60
2023-02-04T01:42:39.965Z,-145.60
2023-02-04T01:45:12.780Z,-145.60
2023-02-04T01:47:41.623Z,-145.60
2023-02-04T01:50:12.809Z,-145.60
2023-02-04T01:52:42.437Z,-145.60
2023-02-04T01:55:15.752Z,-145.60
2023-02-04T01:57:44.919Z,-145.60
2023-02-04T02:00:18.935Z,-145.60
2023-02-04T02:02:50.571Z,-145.60
2023-02-04T02:05:22.922Z,-145.60
2023-02-04T02:07:55.197Z,-145.60
2023-02-04T02:10:24.600Z,-145.60
2023-02-04T02:12:53.254Z,-145.60
2023-02-04T02:15:23.655Z,-145.60
2023-02-04T02:17:52.725Z,-145.60
2023-02-04T02:20:23.701Z,-145.60
2023-02-04T02:23:01.572Z,-145.60
2023-02-04T02:25:31.211Z,-145.60
2023-02-04T02:28:00.745Z,-145.60
2023-02-04T02:30:31.601Z,-145.60
2023-02-04T02:33:00.503Z,-145.60
2023-02-04T02:35:29.006Z,-145.60
2023-02-04T02:37:58.490Z,-145.60
2023-02-04T02:40:27.220Z,-145.60
2023-02-04T02:42:57.095Z,-145.60
2023-02-04T02:45:28.351Z,-145.60
2023-02-04T02:47:58.664Z,-145.60
2023-02-04T02:50:29.038Z,-145.60
2023-02-04T02:52:59.050Z,-145.60
2023-02-04T02:55:29.487Z,-145.60
2023-02-04T02:58:00.397Z,-145.60
2023-02-04T03:00:30.731Z,-145.60
2023-02-04T03:03:04.684Z,-145.60
2023-02-04T03:05:38.158Z,-145.60
2023-02-04T03:08:06.854Z,-145.60
2023-02-04T03:10:36.232Z,-145.60
2023-02-04T03:13:06.409Z,-145.60
2023-02-04T03:15:35.439Z,-145.60
2023-02-04T03:18:04.333Z,-145.60
2023-02-04T03:20:33.893Z,-145.60
2023-02-04T03:23:02.204Z,-145.60
2023-02-04T03:25:30.369Z,-145.60
2023-02-04T03:28:00.123Z,-145.60
2023-02-04T03:30:30.446Z,-145.60
2023-02-04T03:32:59.592Z,-145.60
2023-02-04T03:35:27.789Z,-145.60
2023-02-04T03:37:56.295Z,-145.60
2023-02-04T03:40:24.580Z,-145.60
2023-02-04T03:42:52.950Z,-145.60
2023-02-04T03:45:21.543Z,-145.60
2023-02-04T03:47:51.364Z,-145.60
2023-02-04T03:50:19.754Z,-145.60
2023-02-04T03:52:49.081Z,-145.60
2023-02-04T03:55:17.364Z,-145.60
2023-02-04T03:57:45.466Z,-145.60
2023-02-04T04:00:15.174Z,-145.60
2023-02-04T04:02:43.457Z,-145.60
2023-02-04T04:05:14.751Z,-145.60
2023-02-04T04:07:46.482Z,-145.60
2023-02-04T04:10:14.751Z,-145.60
2023-02-04T04:12:42.952Z,-145.60
2023-02-04T04:15:11.418Z,-145.60
2023-02-04T04:17:39.390Z,-145.60
2023-02-04T04:20:08.315Z,-145.60
2023-02-04T04:22:37.843Z,-145.60
2023-02-04T04:25:06.501Z,-145.60
2023-02-04T04:27:34.787Z,-145.60
2023-02-04T04:30:03.178Z,-145.60
2023-02-04T04:32:31.466Z,-145.60
2023-02-04T04:34:59.507Z,-145.60
2023-02-04T04:37:27.867Z,-145.60
2023-02-04T04:39:57.897Z,-145.60
2023-02-04T04:42:26.307Z,-145.60
2023-02-04T04:44:54.600Z,-145.60
2023-02-04T04:47:22.952Z,-145.60
2023-02-04T04:49:51.011Z,-145.60
2023-02-04T04:52:19.163Z,-145.60
2023-02-04T04:54:47.237Z,-145.60
2023-02-04T04:57:16.748Z,-145.60
2023-02-04T04:59:45.192Z,-145.60
2023-02-04T05:02:13.386Z,-145.60
2023-02-04T05:04:41.698Z,-145.60
2023-02-04T05:07:09.743Z,-145.60
2023-02-04T05:09:38.451Z,-145.60
2023-02-04T05:12:07.276Z,-145.60
2023-02-04T05:14:36.757Z,-145.60
2023-02-04T05:17:04.906Z,-145.60
2023-02-04T05:19:33.022Z,-145.60
2023-02-04T05:22:01.967Z,-145.60
2023-02-04T05:24:30.114Z,-145.60
2023-02-04T05:26:58.119Z,-145.60
2023-02-04T05:29:26.331Z,-145.60
2023-02-04T05:31:55.930Z,-145.60
2023-02-04T05:34:24.141Z,-145.60
2023-02-04T05:36:52.462Z,-145.60
2023-02-04T05:39:21.041Z,-145.60
2023-02-04T05:41:49.254Z,-145.60
2023-02-04T05:44:17.479Z,-145.60
2023-02-04T05:46:45.618Z,-145.60
2023-02-04T05:49:15.233Z,-145.60
2023-02-04T05:51:43.275Z,-145.60
2023-02-04T05:54:11.497Z,-145.60
2023-02-04T05:56:39.672Z,-145.60
2023-02-04T05:59:07.976Z,-145.60
2023-02-04T06:01:36.330Z,-145.60
2023-02-04T06:04:04.584Z,-145.60
2023-02-04T06:06:34.380Z,-145.60
2023-02-04T06:09:02.936Z,-145.60
2023-02-04T06:11:31.223Z,-145.60
2023-02-04T06:13:59.923Z,-145.60
2023-02-04T06:16:28.702Z,-145.60
2023-02-04T06:18:56.910Z,-145.60
2023-02-04T06:21:25.210Z,-145.60
2023-02-04T06:23:54.796Z,-145.60
2023-02-04T06:26:23.583Z,-145.60
2023-02-04T06:28:51.792Z,-145.60
2023-02-04T06:31:20.329Z,-145.60
2023-02-04T06:33:48.552Z,-145.60
2023-02-04T06:36:16.973Z,-145.60
2023-02-04T06:38:45.566Z,-145.60
2023-02-04T06:41:15.489Z,-145.60
2023-02-04T06:43:43.721Z,-145.60
2023-02-04T06:46:12.151Z,-145.60
2023-02-04T06:48:41.147Z,-145.60
2023-02-04T06:51:09.988Z,-145.60
2023-02-04T06:53:38.828Z,-145.60
2023-02-04T06:56:07.946Z,-145.60
2023-02-04T06:58:37.823Z,-145.60
2023-02-04T07:01:07.108Z,-145.60
2023-02-04T07:03:35.899Z,-145.60
2023-02-04T07:06:04.490Z,-145.60
2023-02-04T07:08:33.934Z,-145.60
2023-02-04T07:11:02.292Z,-145.60
2023-02-04T07:13:31.173Z,-145.60
2023-02-04T07:16:01.036Z,-145.60
2023-02-04T07:18:29.719Z,-145.60
2023-02-04T07:20:58.062Z,-145.60
2023-02-04T07:23:28.270Z,-145.60
2023-02-04T07:25:59.576Z,-145.60
2023-02-04T07:28:29.082Z,-145.60
2023-02-04T07:30:57.567Z,-145.60
2023-02-04T07:33:27.839Z,-145.60
2023-02-04T07:35:56.093Z,-145.60
2023-02-04T07:38:24.713Z,-145.60
2023-02-04T07:40:53.286Z,-145.60
2023-02-04T07:43:21.775Z,-145.60
2023-02-04T07:45:49.974Z,-145.60
2023-02-04T07:48:18.477Z,-145.60
2023-02-04T07:50:48.693Z,-145.60
2023-02-04T07:53:17.155Z,-145.60
2023-02-04T07:55:45.796Z,-145.60
2023-02-04T07:58:14.594Z,-145.60
2023-02-04T08:00:43.073Z,-145.60
2023-02-04T08:03:12.090Z,-145.60
2023-02-04T08:05:43.232Z,-145.60
2023-02-04T08:08:13.312Z,-145.60
2023-02-04T08:10:41.942Z,-145.60
2023-02-04T08:13:10.330Z,-145.60
2023-02-04T08:15:39.412Z,-145.60
2023-02-04T08:18:07.937Z,-145.60
2023-02-04T08:20:36.438Z,-145.60
2023-02-04T08:23:05.147Z,-145.60
2023-02-04T08:25:35.076Z,-145.60
2023-02-04T08:28:04.989Z,-145.60
2023-02-04T08:30:35.582Z,-145.60
2023-02-04T08:33:04.886Z,-145.60
2023-02-04T08:35:33.545Z,-145.60
2023-02-04T08:38:02.360Z,-145.60
2023-02-04T08:40:31.236Z,-145.60
2023-02-04T08:43:01.107Z,-145.60
2023-02-04T08:45:29.572Z,-145.60
2023-02-04T08:47:58.418Z,-145.60
2023-02-04T08:50:28.929Z,-145.60
2023-02-04T08:52:58.083Z,-145.60
2023-02-04T08:55:27.642Z,-145.60
2023-02-04T08:57:56.132Z,-145.60
2023-02-04T09:00:26.566Z,-145.60
2023-02-04T09:02:55.248Z,-145.60
2023-02-04T09:05:23.694Z,-145.60
2023-02-04T09:07:52.128Z,-145.60
2023-02-04T09:10:20.995Z,-145.60
2023-02-04T09:12:49.885Z,-145.60
2023-02-04T09:15:18.797Z,-145.60
2023-02-04T09:17:48.694Z,-145.60
2023-02-04T09:20:17.480Z,-145.60
2023-02-04T09:22:45.881Z,-145.60
2023-02-04T09:25:14.272Z,-145.60
2023-02-04T09:27:42.944Z,-145.60
2023-02-04T09:30:12.417Z,-145.60
2023-02-04T09:32:41.618Z,-145.60
2023-02-04T09:35:11.437Z,-145.60
2023-02-04T09:37:39.810Z,-145.60
2023-02-04T09:40:09.001Z,-145.60
2023-02-04T09:42:37.548Z,-145.60
2023-02-04T09:45:07.631Z,-145.60
2023-02-04T09:47:36.310Z,-145.60
2023-02-04T09:50:04.883Z,-145.60
2023-02-04T09:52:35.748Z,-145.60
2023-02-04T09:55:04.181Z,-145.60
2023-02-04T09:57:32.878Z,-145.60
2023-02-04T10:00:01.674Z,-145.60
2023-02-04T10:02:30.947Z,-145.60
2023-02-04T10:04:59.731Z,-145.60
2023-02-04T10:07:30.021Z,-145.60
2023-02-04T10:10:00.069Z,-145.60
2023-02-04T10:12:29.722Z,-145.60
2023-02-04T10:14:58.408Z,-145.60
2023-02-04T10:17:27.138Z,-145.60
2023-02-04T10:19:56.778Z,-145.60
2023-02-04T10:22:25.677Z,-145.60
2023-02-04T10:24:54.367Z,-145.60
2023-02-04T10:27:24.726Z,-145.60
2023-02-04T10:29:59.643Z,-145.60
2023-02-04T10:32:31.094Z,-145.60
2023-02-04T10:35:01.268Z,-145.60
2023-02-04T10:37:31.194Z,-145.60
2023-02-04T10:40:00.010Z,-145.60
2023-02-04T10:42:31.300Z,6.01
2023-02-04T10:45:00.960Z,-145.60
2023-02-04T10:47:31.722Z,-145.60
2023-02-04T10:50:05.410Z,-145.60
2023-02-04T10:52:37.761Z,-145.60
2023-02-04T10:55:12.300Z,-145.60
2023-02-04T10:57:46.336Z,-145.60
2023-02-04T11:00:19.346Z,-145.60
2023-02-04T11:02:58.579Z,-145.60
2023-02-04T11:05:32.367Z,-145.60
2023-02-04T11:08:01.371Z,-145.60
2023-02-04T11:10:32.531Z,-145.60
2023-02-04T11:13:06.828Z,-145.60
2023-02-04T11:15:41.398Z,-145.60
2023-02-04T11:18:11.532Z,-145.60
2023-02-04T11:20:41.276Z,-145.60
2023-02-04T11:23:35.277Z,-145.60
2023-02-04T11:26:08.211Z,-145.60
2023-02-04T11:29:09.445Z,-145.60
2023-02-04T11:31:45.813Z,-145.60
2023-02-04T11:34:27.978Z,-145.60
2023-02-04T11:37:14.444Z,-145.60
2023-02-04T11:39:45.508Z,-145.60
2023-02-04T11:42:22.302Z,-145.60
2023-02-04T11:44:53.992Z,-145.60
2023-02-04T11:47:25.056Z,-145.60
2023-02-04T11:50:02.047Z,-145.60
2023-02-04T11:52:30.720Z,-145.60
2023-02-04T11:55:01.100Z,-145.60
2023-02-04T11:57:30.156Z,-145.60
2023-02-04T12:00:02.222Z,-145.60
2023-02-04T12:02:45.440Z,-145.60
2023-02-04T12:05:17.107Z,-145.60
2023-02-04T12:07:46.692Z,-145.60
2023-02-04T12:10:24.919Z,-145.60
2023-02-04T12:12:57.773Z,-145.60
2023-02-04T12:15:36.205Z,-145.60
2023-02-04T12:18:07.862Z,-145.60
2023-02-04T12:20:37.467Z,-145.60
2023-02-04T12:23:06.735Z,-145.60
2023-02-04T12:25:36.069Z,-145.60
2023-02-04T12:28:04.902Z,-145.60
2023-02-04T12:30:36.540Z,-145.60
2023-02-04T12:33:05.579Z,-145.60
2023-02-04T12:35:34.398Z,-145.60
2023-02-04T12:38:03.645Z,-145.60
2023-02-04T12:40:32.910Z,-145.60
2023-02-04T12:43:01.733Z,-145.60
2023-02-04T12:45:30.308Z,-145.60
2023-02-04T12:48:01.857Z,-145.60
2023-02-04T12:50:30.517Z,-145.60
2023-02-04T12:53:00.746Z,-145.60
2023-02-04T12:55:30.777Z,-145.60
2023-02-04T12:57:59.755Z,-145.60
2023-02-04T13:00:28.633Z,-145.60
2023-02-04T13:02:59.249Z,-145.60
2023-02-04T13:05:30.416Z,-145.60
2023-02-04T13:07:59.180Z,-145.60
2023-02-04T13:10:27.469Z,-145.60
2023-02-04T13:12:55.661Z,-145.60
2023-02-04T13:15:24.185Z,-145.60
2023-02-04T13:17:52.564Z,-145.60
2023-02-04T13:20:21.757Z,-145.60
2023-02-04T13:22:51.687Z,-145.60
2023-02-04T13:25:20.210Z,-145.60
2023-02-04T13:27:48.923Z,-145.60
2023-02-04T13:30:18.699Z,-145.60
2023-02-04T13:32:47.669Z,-145.60
2023-02-04T13:35:16.390Z,-145.60
2023-02-04T13:37:44.886Z,-145.60
2023-02-04T13:40:15.380Z,-145.60
2023-02-04T13:42:44.055Z,-145.60
2023-02-04T13:45:13.414Z,-145.60
2023-02-04T13:47:42.192Z,-145.60
2023-02-04T13:50:11.101Z,-145.60
2023-02-04T13:52:39.760Z,-145.60
2023-02-04T13:55:08.878Z,-145.60
2023-02-04T13:57:38.963Z,-145.60
2023-02-04T14:00:09.468Z,-145.60
2023-02-04T14:02:41.084Z,-145.60
2023-02-04T14:05:09.983Z,-145.60
2023-02-04T14:07:38.640Z,-145.60
2023-02-04T14:10:08.081Z,-145.60
2023-02-04T14:12:36.905Z,-145.60
2023-02-04T14:15:07.754Z,-145.60
2023-02-04T14:17:36.110Z,-145.60
2023-02-04T14:20:05.975Z,-145.60
2023-02-04T14:22:35.319Z,-145.60
2023-02-04T14:25:03.857Z,-145.60
2023-02-04T14:27:33.036Z,-145.60
2023-02-04T14:30:01.362Z,-145.60
2023-02-04T14:32:31.342Z,-145.60
2023-02-04T14:35:00.587Z,-145.60
2023-02-04T14:37:29.578Z,-145.60
2023-02-04T14:39:58.052Z,-145.60
2023-02-04T14:42:26.542Z,-145.60
2023-02-04T14:44:55.388Z,-145.60
2023-02-04T14:47:24.018Z,-145.60
2023-02-04T14:49:54.448Z,-145.60
2023-02-04T14:52:22.990Z,-145.60
2023-02-04T14:54:51.366Z,-145.60
2023-02-04T14:57:20.166Z,-145.60
2023-02-04T14:59:48.586Z,-145.60
2023-02-04T15:02:17.298Z,-145.60
2023-02-04T15:04:46.048Z,-145.60
2023-02-04T15:07:16.566Z,-145.60
2023-02-04T15:09:45.658Z,-145.60
2023-02-04T15:12:13.962Z,-145.60
2023-02-04T15:14:42.488Z,-145.60
2023-02-04T15:17:11.023Z,-145.60
2023-02-04T15:19:39.748Z,-145.60
2023-02-04T15:22:08.630Z,-145.60
2023-02-04T15:24:38.954Z,-145.60
2023-02-04T15:27:07.825Z,-145.60
2023-02-04T15:29:36.743Z,-145.60
2023-02-04T15:32:06.185Z,-145.60
2023-02-04T15:34:39.937Z,-145.60
2023-02-04T15:37:10.983Z,-145.60
2023-02-04T15:39:41.311Z,-145.60
2023-02-04T15:42:10.092Z,-145.60
2023-02-04T15:44:39.287Z,-145.60
2023-02-04T15:47:07.547Z,-145.60
2023-02-04T15:49:36.526Z,-145.60
2023-02-04T15:52:08.879Z,-145.60
2023-02-04T15:54:41.449Z,-145.60
2023-02-04T15:57:09.668Z,-145.60
2023-02-04T15:59:38.651Z,-145.60
2023-02-04T16:02:07.084Z,-145.60
2023-02-04T16:04:36.129Z,-145.60
2023-02-04T16:07:08.441Z,-145.60
2023-02-04T16:09:38.085Z,-145.60
2023-02-04T16:12:08.685Z,-145.60
2023-02-04T16:14:37.164Z,-145.60
2023-02-04T16:17:07.135Z,-145.60
2023-02-04T16:19:35.851Z,-145.60
2023-02-04T16:22:06.142Z,-145.60
2023-02-04T16:24:34.265Z,-145.60
2023-02-04T16:27:02.414Z,-145.60
2023-02-04T16:29:32.164Z,-145.60
2023-02-04T16:32:00.246Z,-145.60
2023-02-04T16:34:29.305Z,-145.60
2023-02-04T16:36:57.379Z,-145.60
2023-02-04T16:39:25.669Z,-145.60
2023-02-04T16:41:53.678Z,-145.60
2023-02-04T16:44:21.691Z,-145.60
2023-02-04T16:46:51.688Z,-145.60
2023-02-04T16:49:19.939Z,-145.60
2023-02-04T16:51:47.926Z,-145.60
2023-02-04T16:54:16.249Z,-145.60
2023-02-04T16:56:44.704Z,-145.60
2023-02-04T16:59:13.679Z,-145.60
2023-02-04T17:01:41.983Z,-145.60
2023-02-04T17:04:11.704Z,-145.60
2023-02-04T17:06:39.971Z,-145.60
2023-02-04T17:09:09.390Z,-145.60
2023-02-04T17:11:37.673Z,-145.60
2023-02-04T17:14:08.733Z,-145.60
2023-02-04T17:16:37.558Z,-145.60
2023-02-04T17:19:06.077Z,-145.60
2023-02-04T17:21:36.286Z,-145.60
2023-02-04T17:24:05.729Z,-145.60
2023-02-04T17:26:37.561Z,-145.60
2023-02-04T17:29:07.125Z,-145.60
2023-02-04T17:31:35.571Z,-145.60
2023-02-04T17:34:04.227Z,-145.60
2023-02-04T17:36:32.980Z,-145.60
2023-02-04T17:39:02.954Z,-145.60
2023-02-04T17:41:31.080Z,-145.60
2023-02-04T17:44:00.137Z,-145.60
2023-02-04T17:46:28.443Z,-145.60
2023-02-04T17:48:56.978Z,-145.60
2023-02-04T17:51:25.128Z,-145.60
2023-02-04T17:53:53.464Z,-145.60
2023-02-04T17:56:23.756Z,-145.60
2023-02-04T17:58:51.856Z,-145.60
2023-02-04T18:01:22.032Z,-145.60
2023-02-04T18:03:50.925Z,-145.60
2023-02-04T18:06:22.319Z,-145.60
2023-02-04T18:08:52.796Z,-145.60
2023-02-04T18:11:27.018Z,-145.60
2023-02-04T18:14:00.734Z,-145.60
2023-02-04T18:16:31.266Z,-145.60
2023-02-04T18:19:15.901Z,-145.60
2023-02-04T18:21:44.177Z,-145.60
2023-02-04T18:24:19.039Z,-145.60
2023-02-04T18:26:50.498Z,-145.60
2023-02-04T18:29:33.128Z,-145.60
2023-02-04T18:32:03.933Z,-145.60
2023-02-04T18:34:37.769Z,-145.60
2023-02-04T18:37:39.680Z,-145.60
2023-02-04T18:40:25.384Z,-145.60
2023-02-04T18:43:04.906Z,-145.60
2023-02-04T18:45:34.367Z,-145.60
2023-02-04T18:48:26.756Z,-145.60
2023-02-04T18:50:55.873Z,-145.60
2023-02-04T18:53:26.610Z,-145.60
2023-02-04T18:55:58.016Z,-145.60
2023-02-04T18:58:34.527Z,-145.60
2023-02-04T19:01:06.075Z,-145.60
2023-02-04T19:03:42.140Z,-145.60
2023-02-04T19:06:26.779Z,-145.60
2023-02-04T19:09:09.523Z,-145.60
2023-02-04T19:11:39.948Z,-145.60
2023-02-04T19:14:19.725Z,-145.60
2023-02-04T19:16:50.741Z,-145.60
2023-02-04T19:19:44.771Z,-145.60
2023-02-04T19:22:21.433Z,-145.60
2023-02-04T19:24:56.829Z,-145.60
2023-02-04T19:27:32.774Z,-145.60
2023-02-04T19:30:18.941Z,-145.60
2023-02-04T19:32:52.460Z,-145.60
2023-02-04T19:35:23.161Z,-145.60
2023-02-04T19:37:55.593Z,-145.60
2023-02-04T19:40:33.578Z,-145.60
2023-02-04T19:43:17.463Z,-145.60
2023-02-04T19:45:48.116Z,-145.60
2023-02-04T19:48:23.685Z,-145.60
2023-02-04T19:50:55.074Z,-145.60
2023-02-04T19:53:29.586Z,-145.60
2023-02-04T19:55:57.765Z,-145.60
2023-02-04T19:58:28.791Z,-145.60
2023-02-04T20:01:00.868Z,-145.60
2023-02-04T20:03:35.965Z,-145.60
2023-02-04T20:06:27.679Z,-145.60
2023-02-04T20:08:57.425Z,-145.60
2023-02-04T20:12:06.418Z,-145.60
2023-02-04T20:14:49.393Z,-145.60
2023-02-04T20:17:35.311Z,-145.60
2023-02-04T20:20:18.144Z,-145.60
2023-02-04T20:22:49.244Z,-145.60
2023-02-04T20:25:47.094Z,-145.60
2023-02-04T20:28:34.757Z,-145.60
2023-02-04T20:31:04.494Z,-145.60
2023-02-04T20:33:46.106Z,-145.60
2023-02-04T20:36:30.796Z,-145.60
2023-02-04T20:39:18.225Z,-145.60
2023-02-04T20:41:46.402Z,-145.60
2023-02-04T20:44:18.040Z,-145.60
2023-02-04T20:46:46.540Z,-145.60
2023-02-04T20:49:23.781Z,-145.60
2023-02-04T20:51:52.845Z,-145.60
2023-02-04T20:54:21.061Z,-145.60
2023-02-04T20:56:49.644Z,-145.60
2023-02-04T20:59:27.777Z,-145.60
2023-02-04T21:01:56.185Z,-145.60
2023-02-04T21:04:30.923Z,-145.60
2023-02-04T21:07:02.519Z,-145.60
2023-02-04T21:09:32.878Z,-145.60
2023-02-04T21:12:03.437Z,-145.60
2023-02-04T21:14:31.893Z,-145.60
2023-02-04T21:17:00.611Z,-145.60
2023-02-04T21:19:30.652Z,-145.60
2023-02-04T21:21:59.061Z,-145.60
2023-02-04T21:24:31.435Z,-145.60
2023-02-04T21:26:59.564Z,-145.60
2023-02-04T21:29:27.710Z,-145.60
2023-02-04T21:31:55.936Z,-145.60
2023-02-04T21:34:24.393Z,-145.60
2023-02-04T21:36:54.185Z,-145.60
2023-02-04T21:39:22.381Z,-145.60
2023-02-04T21:42:10.118Z,-145.60
2023-02-04T21:44:38.953Z,-145.60
2023-02-04T21:47:07.256Z,-145.60
2023-02-04T21:49:39.002Z,-145.60
2023-02-04T21:52:09.863Z,-145.60
2023-02-04T21:54:38.010Z,-145.60
2023-02-04T21:57:06.022Z,-145.60
2023-02-04T21:59:34.454Z,-145.60
2023-02-04T22:02:02.712Z,-145.60
2023-02-04T22:04:30.965Z,-145.60
2023-02-04T22:06:59.159Z,-145.60
2023-02-04T22:09:28.556Z,-145.60
2023-02-04T22:11:56.604Z,-145.60
2023-02-04T22:14:24.799Z,-145.60
2023-02-04T22:16:52.907Z,-145.60
2023-02-04T22:19:21.043Z,-145.60
2023-02-04T22:21:49.200Z,-145.60
2023-02-04T22:24:17.245Z,-145.60
2023-02-04T22:26:46.881Z,-145.60
2023-02-04T22:29:15.590Z,-145.60
2023-02-04T22:31:43.882Z,-145.60
2023-02-04T22:34:11.996Z,-145.60
2023-02-04T22:36:40.279Z,-145.60
2023-02-04T22:39:08.648Z,-145.60
2023-02-04T22:41:37.872Z,-145.60
2023-02-04T22:44:07.865Z,-145.60
2023-02-04T22:46:36.349Z,-145.60
2023-02-04T22:49:06.016Z,-145.60
2023-02-04T22:51:34.579Z,-145.60
2023-02-04T22:54:02.888Z,-145.60
2023-02-04T22:56:31.767Z,-145.60
2023-02-04T22:58:59.785Z,-145.60
2023-02-04T23:01:29.196Z,-145.60
2023-02-04T23:03:57.209Z,-145.60
2023-02-04T23:06:25.556Z,-145.60
2023-02-04T23:08:54.453Z,-145.60
2023-02-04T23:11:23.380Z,-145.60
2023-02-04T23:13:51.969Z,-145.60
2023-02-04T23:16:20.220Z,-145.60
2023-02-04T23:18:49.777Z,-145.60
2023-02-04T23:21:17.997Z,-145.60
2023-02-04T23:23:46.045Z,-145.60
2023-02-04T23:26:14.773Z,-145.60
2023-02-04T23:28:43.277Z,-145.60
2023-02-04T23:31:11.795Z,-145.60
2023-02-04T23:33:39.881Z,-145.60
2023-02-04T23:36:11.108Z,-145.60
2023-02-04T23:38:39.208Z,-145.60
2023-02-04T23:41:07.426Z,-145.60
2023-02-04T23:43:36.098Z,-145.60
2023-02-04T23:46:04.378Z,-145.60
2023-02-04T23:48:32.552Z,-145.60
2023-02-04T23:51:00.716Z,-145.60
2023-02-04T23:53:30.234Z,-145.60
2023-02-04T23:55:58.417Z,-145.60
2023-02-04T23:58:26.584Z,-145.60
